Impacts TAF Board
For situational awareness. Not to be used for flight planning purposes.
IDs:

KSTL - St Louis/Lambert Int, MO, US

Issued at 0520 UTC 20 Oct 2018
Updated at 0615 UTC 20 Oct 2018
Potential Impact None Slight Moderate High
Time<<21/07Z 21/08Z 21/09Z 21/10Z 21/11Z 21/12Z 21/13Z 21/14Z 21/15Z 21/16Z 21/17Z 21/18Z 21/19Z
Type PRVL PRVL PRVL PRVL PRVL
VIS >6 >6 >6 >6 >6
CIG -- -- -- -- --
Cover SKC SKC SKC SKC SKC
FltCat VFR VFR VFR VFR VFR
WX -- -- -- -- --
WDir 360 360 360 360 360
WSpd 7 7 7 7 7
WGst -- -- -- -- --
Raw TAF
KSTL 200520Z 2006/2112 27008KT P6SM SCT250
  FM201600 29015G24KT P6SM SKC
  FM201900 31020G32KT P6SM FEW050
  FM210000 34013G23KT P6SM SKC
  FM210300 36007KT P6SM SKC


METAR Board
Radar Display
Forecast Discussion
For situational awareness. Not to be used for flight planning purposes.